Accueil
METAR-TAF:

METAR-TAF

Aéroports :

Aéroport de Colmar - Houssen

Colmar, France

latitude: 48-06-37N, longitude: 7-21-33E, altitude: 191 m

Observation

Le bulletin a été fait il y a 22 minutes, à 07:30 UTC
Vent 10 kt de nord
Température 2°C
Humidité 93%
Pression 1021 hPa
Visibilité 10 km ou plus
Quelques nuages à une hauteur de 800 ft
Ciel couvert à une hauteur de 2200 ft

METAR: LFGA 290730Z AUTO 36010KT 9999 FEW008 OVC022 02/01 Q1021

Heure: 08:52 (07:52 UTC)


TAF: absent

Observations et prévisions météorologiques de plus de 4000 aéroports (messages METAR et TAF).

Les stations disponibles sont représentées par des disques jaunes et rouges sur la carte.

Passer la souris dessus pour voir le nom de la station.

Cliquer dessus pour voir les observations et prévisions météorologiques.

Pour changer de carte: cliquez sur les boutons verts avec une croix noire pour zoomer, sur le bouton vert avec un tiret pour effectuer un zoom arrière, ou sur les flèches vertes pour les cartes adjacentes.


METAR-TAF: